Time;durP1;ratioP1;P1;durP2;ratioP2;P2;SDS_P1;SDS_P2;PMS_P1;PMS_P2;Temp;Humidity;BMP_temperature;BMP_pressure;BME280_temperature;BME280_humidity;BME280_pressure;Samples;Min_cycle;Max_cycle;Signal;HPM_P1;HPM_P2
2023/07/28 15:13:26;;;;;;;5.88;1.70;;;;;;;;;;5035759;28;20847;-83
2023/07/28 15:15:52;;;;;;;4.05;1.65;;;;;;;;;;5027559;28;20113;-83
2023/07/28 15:18:17;;;;;;;3.58;1.65;;;;;;;;;;5028425;28;20357;-83
2023/07/28 15:20:43;;;;;;;5.22;1.70;;;;;;;;;;5025791;28;20029;-82
2023/07/28 15:23:09;;;;;;;3.40;1.27;;;;;;;;;;5026748;28;20029;-83
2023/07/28 15:25:35;;;;;;;3.47;1.60;;;;;;;;;;5043079;28;20065;-81
2023/07/28 15:28:00;;;;;;;6.55;1.88;;;;;;;;;;4999807;28;20068;-84
2023/07/28 15:30:25;;;;;;;6.47;1.60;;;;;;;;;;5041856;28;20053;-84
2023/07/28 15:32:51;;;;;;;2.85;1.50;;;;;;;;;;5027603;28;20113;-84
2023/07/28 15:35:16;;;;;;;3.35;1.63;;;;;;;;;;5038693;28;20044;-84
2023/07/28 15:37:42;;;;;;;2.47;1.70;;;;;;;;;;5021892;28;20447;-83
2023/07/28 15:40:08;;;;;;;3.80;1.67;;;;;;;;;;5020888;28;20029;-84
2023/07/28 15:42:33;;;;;;;6.47;1.90;;;;;;;;;;5042826;28;20034;-83
2023/07/28 15:44:59;;;;;;;5.25;1.67;;;;;;;;;;5027029;28;20075;-83
2023/07/28 15:47:24;;;;;;;5.15;1.90;;;;;;;;;;5026433;28;20103;-84
2023/07/28 15:49:50;;;;;;;5.28;1.90;;;;;;;;;;5026478;28;20041;-83
2023/07/28 15:52:16;;;;;;;2.97;1.60;;;;;;;;;;5016572;28;20034;-83
2023/07/28 15:54:41;;;;;;;4.13;1.90;;;;;;;;;;5042999;28;20493;-83
2023/07/28 15:57:07;;;;;;;4.68;2.15;;;;;;;;;;5042386;28;20117;-83
2023/07/28 15:59:33;;;;;;;3.70;1.80;;;;;;;;;;5016831;28;20038;-83
2023/07/28 16:01:58;;;;;;;6.68;2.08;;;;;;;;;;5024527;28;20396;-84
2023/07/28 16:04:23;;;;;;;4.85;2.58;;;;;;;;;;5027569;28;20057;-83
2023/07/28 16:06:49;;;;;;;3.97;2.10;;;;;;;;;;5026060;28;20113;-83
2023/07/28 16:09:14;;;;;;;4.68;1.98;;;;;;;;;;5009516;28;20041;-83
2023/07/28 16:11:40;;;;;;;3.40;1.80;;;;;;;;;;5008914;28;20100;-84
2023/07/28 16:14:05;;;;;;;4.55;2.22;;;;;;;;;;5026229;28;20037;-84
2023/07/28 16:16:31;;;;;;;5.20;2.70;;;;;;;;;;5026867;28;20056;-84
2023/07/28 16:18:56;;;;;;;3.83;2.85;;;;;;;;;;5025100;28;20042;-84
2023/07/28 16:21:22;;;;;;;7.68;2.55;;;;;;;;;;5025558;28;20501;-85
2023/07/28 16:23:47;;;;;;;5.22;3.38;;;;;;;;;;5001680;28;20038;-84
2023/07/28 16:26:13;;;;;;;5.38;2.90;;;;;;;;;;5013106;28;20076;-84
2023/07/28 16:28:38;;;;;;;4.57;3.10;;;;;;;;;;4988051;28;20056;-84
2023/07/28 16:31:04;;;;;;;4.63;2.97;;;;;;;;;;5014220;28;20029;-83
2023/07/28 16:33:30;;;;;;;5.78;2.47;;;;;;;;;;5003986;28;20551;-84
2023/07/28 16:35:56;;;;;;;4.35;3.10;;;;;;;;;;5013279;28;20021;-83
2023/07/28 16:38:22;;;;;;;4.78;2.45;;;;;;;;;;5012305;28;20116;-83
2023/07/28 16:40:47;;;;;;;5.25;2.60;;;;;;;;;;5012835;28;20057;-83
2023/07/28 16:43:13;;;;;;;2.95;2.20;;;;;;;;;;5013681;28;20040;-84
2023/07/28 16:45:38;;;;;;;3.75;1.90;;;;;;;;;;5012965;28;20030;-83
2023/07/28 16:48:04;;;;;;;3.15;2.53;;;;;;;;;;5013134;28;20069;-84
2023/07/28 16:50:29;;;;;;;3.28;2.25;;;;;;;;;;5028574;28;20124;-84
2023/07/28 16:52:55;;;;;;;3.58;2.38;;;;;;;;;;5028361;28;20045;-84
2023/07/28 16:55:20;;;;;;;4.22;2.13;;;;;;;;;;5013184;28;20060;-84
2023/07/28 16:57:46;;;;;;;5.65;2.60;;;;;;;;;;5011520;28;20042;-84
2023/07/28 17:00:11;;;;;;;7.95;2.33;;;;;;;;;;5012882;28;20026;-84
2023/07/28 17:02:37;;;;;;;4.80;2.78;;;;;;;;;;4995451;28;20041;-83
2023/07/28 17:05:06;;;;;;;5.32;2.25;;;;;;;;;;5012934;28;20118;-84
2023/07/28 17:07:31;;;;;;;2.55;1.90;;;;;;;;;;5011706;28;20095;-84
2023/07/28 17:09:57;;;;;;;4.22;2.60;;;;;;;;;;5011494;28;20493;-84
2023/07/28 17:12:22;;;;;;;8.60;2.78;;;;;;;;;;4994229;28;20053;-83
2023/07/28 17:14:48;;;;;;;3.40;2.30;;;;;;;;;;5012805;28;20050;-84
2023/07/28 17:17:13;;;;;;;4.20;2.20;;;;;;;;;;5010688;28;20045;-83
2023/07/28 17:19:39;;;;;;;4.05;2.08;;;;;;;;;;5018241;28;20030;-83
2023/07/28 17:22:04;;;;;;;2.80;2.00;;;;;;;;;;5010207;28;20041;-83
2023/07/28 17:24:31;;;;;;;3.92;2.55;;;;;;;;;;5011500;28;20864;-83
2023/07/28 17:26:56;;;;;;;4.22;2.60;;;;;;;;;;5010720;28;20049;-83
2023/07/28 17:29:22;;;;;;;5.70;2.55;;;;;;;;;;5011521;28;20030;-83
2023/07/28 17:31:48;;;;;;;3.05;2.13;;;;;;;;;;5011005;28;20034;-83
2023/07/28 17:34:13;;;;;;;5.85;2.60;;;;;;;;;;5010870;28;20173;-83
2023/07/28 17:36:39;;;;;;;3.45;2.13;;;;;;;;;;5026645;28;20083;-83
2023/07/28 17:39:04;;;;;;;4.93;2.83;;;;;;;;;;5011014;28;20032;-84
2023/07/28 17:41:30;;;;;;;3.78;2.60;;;;;;;;;;5011295;28;20120;-82
2023/07/28 17:43:55;;;;;;;3.38;2.80;;;;;;;;;;5010819;28;20405;-85
2023/07/28 17:46:21;;;;;;;4.10;3.15;;;;;;;;;;4995219;28;20057;-83
2023/07/28 17:48:47;;;;;;;4.75;2.70;;;;;;;;;;5027567;28;20034;-82
2023/07/28 17:51:13;;;;;;;4.47;2.97;;;;;;;;;;4996021;28;20483;-84
2023/07/28 17:53:38;;;;;;;7.35;2.60;;;;;;;;;;5013343;28;20025;-84
2023/07/28 17:56:04;;;;;;;3.58;2.70;;;;;;;;;;5012622;28;20124;-87
2023/07/28 17:58:29;;;;;;;5.47;3.28;;;;;;;;;;5012649;28;20029;-87
2023/07/28 18:00:55;;;;;;;5.47;2.90;;;;;;;;;;5014490;28;20045;-86
2023/07/28 18:03:21;;;;;;;4.50;2.95;;;;;;;;;;5012569;28;20461;-86
2023/07/28 18:05:46;;;;;;;4.43;2.70;;;;;;;;;;5009969;28;20038;-85
2023/07/28 18:08:12;;;;;;;3.28;2.47;;;;;;;;;;5008243;28;20034;-85
2023/07/28 18:10:38;;;;;;;3.25;2.55;;;;;;;;;;5012654;28;20083;-85
2023/07/28 18:13:03;;;;;;;3.83;2.40;;;;;;;;;;5022433;28;20054;-85
2023/07/28 18:15:29;;;;;;;4.43;2.78;;;;;;;;;;5012384;28;20044;-86
2023/07/28 18:17:54;;;;;;;3.63;2.42;;;;;;;;;;5007807;28;20030;-85
2023/07/28 18:20:21;;;;;;;8.82;2.75;;;;;;;;;;5012170;28;20033;-85
2023/07/28 18:22:46;;;;;;;3.03;2.50;;;;;;;;;;5012057;28;20034;-85
2023/07/28 18:25:12;;;;;;;6.53;2.65;;;;;;;;;;4979565;28;20121;-84
2023/07/28 18:27:37;;;;;;;5.38;2.28;;;;;;;;;;5011677;28;20030;-86
2023/07/28 18:30:03;;;;;;;3.70;2.10;;;;;;;;;;5008958;28;20029;-84
2023/07/28 18:32:29;;;;;;;2.97;2.00;;;;;;;;;;5011062;28;20026;-84
2023/07/28 18:34:54;;;;;;;4.72;2.20;;;;;;;;;;5008591;28;20080;-85
2023/07/28 18:37:21;;;;;;;2.75;2.08;;;;;;;;;;5008509;28;20476;-84
2023/07/28 18:39:46;;;;;;;4.15;2.20;;;;;;;;;;5012926;28;20029;-85
2023/07/28 18:42:12;;;;;;;2.72;2.00;;;;;;;;;;4990858;28;20723;-85
2023/07/28 18:44:37;;;;;;;5.78;2.30;;;;;;;;;;5005446;28;20026;-86
2023/07/28 18:47:03;;;;;;;5.63;2.00;;;;;;;;;;5011340;28;20034;-86
2023/07/28 18:49:29;;;;;;;5.75;2.65;;;;;;;;;;4994592;28;20125;-86
2023/07/28 18:51:54;;;;;;;3.85;2.65;;;;;;;;;;5009594;28;20033;-84
2023/07/28 18:54:21;;;;;;;2.95;2.20;;;;;;;;;;4994999;28;20494;-85
2023/07/28 18:56:47;;;;;;;3.17;2.28;;;;;;;;;;5009318;28;20033;-84
2023/07/28 18:59:13;;;;;;;3.53;2.25;;;;;;;;;;5012076;28;20021;-83
2023/07/28 19:01:38;;;;;;;3.58;2.40;;;;;;;;;;4998375;28;20034;-85
2023/07/28 19:04:04;;;;;;;6.25;2.70;;;;;;;;;;5012581;28;20057;-84
2023/07/28 19:06:29;;;;;;;5.68;3.10;;;;;;;;;;4994424;28;20026;-85
2023/07/28 19:08:55;;;;;;;3.20;2.22;;;;;;;;;;5010180;28;20026;-85
2023/07/28 19:11:21;;;;;;;3.25;2.40;;;;;;;;;;4992388;28;20062;-85
2023/07/28 19:13:48;;;;;;;3.28;2.15;;;;;;;;;;5011255;28;20041;-86
2023/07/28 19:16:14;;;;;;;4.88;2.25;;;;;;;;;;4993658;28;20038;-85
2023/07/28 19:18:40;;;;;;;3.38;2.17;;;;;;;;;;5010621;28;20049;-85
2023/07/28 19:21:05;;;;;;;3.78;2.10;;;;;;;;;;5011431;28;20107;-85
2023/07/28 19:23:31;;;;;;;5.40;2.10;;;;;;;;;;5000965;28;20049;-84
2023/07/28 19:25:57;;;;;;;4.97;2.30;;;;;;;;;;5017345;28;20037;-85
2023/07/28 19:28:22;;;;;;;5.50;2.30;;;;;;;;;;4999897;28;20085;-86
2023/07/28 19:30:49;;;;;;;4.35;2.03;;;;;;;;;;5002885;28;20108;-85
2023/07/28 19:33:15;;;;;;;3.33;2.20;;;;;;;;;;4999216;28;20037;-84
2023/07/28 19:35:44;;;;;;;2.90;1.98;;;;;;;;;;5002425;28;20485;-85
2023/07/28 19:38:09;;;;;;;3.08;1.92;;;;;;;;;;5002859;28;20030;-85
2023/07/28 19:40:35;;;;;;;6.50;2.13;;;;;;;;;;5011606;28;20080;-85
2023/07/28 19:43:01;;;;;;;3.15;1.83;;;;;;;;;;5011597;28;20084;-85
2023/07/28 19:45:26;;;;;;;3.85;2.00;;;;;;;;;;4994664;28;20192;-85
2023/07/28 19:47:52;;;;;;;3.85;2.15;;;;;;;;;;5012054;28;20053;-85
2023/07/28 19:50:18;;;;;;;4.28;1.90;;;;;;;;;;4994180;28;20041;-85
2023/07/28 19:52:43;;;;;;;5.45;2.58;;;;;;;;;;5004017;28;20117;-86
2023/07/28 19:55:09;;;;;;;7.07;2.28;;;;;;;;;;5011066;28;20470;-85
2023/07/28 19:57:34;;;;;;;4.40;2.13;;;;;;;;;;5012437;28;20026;-85
2023/07/28 20:00:00;;;;;;;3.90;1.80;;;;;;;;;;5014495;28;20026;-86
2023/07/28 20:02:25;;;;;;;5.43;2.20;;;;;;;;;;5016040;28;20025;-85
2023/07/28 20:04:51;;;;;;;3.58;1.90;;;;;;;;;;5013917;28;20041;-83
2023/07/28 20:07:17;;;;;;;4.20;2.13;;;;;;;;;;5031373;28;20117;-84
2023/07/28 20:09:43;;;;;;;4.90;2.15;;;;;;;;;;4994173;28;20042;-84
2023/07/28 20:12:08;;;;;;;3.22;1.90;;;;;;;;;;5013850;28;20054;-84
2023/07/28 20:14:34;;;;;;;4.32;1.90;;;;;;;;;;5012253;28;20036;-84
2023/07/28 20:16:59;;;;;;;2.70;1.90;;;;;;;;;;4987631;28;20041;-84
2023/07/28 20:19:25;;;;;;;2.60;1.60;;;;;;;;;;4998410;28;20040;-85
2023/07/28 20:21:50;;;;;;;3.03;1.95;;;;;;;;;;5013593;28;20037;-84
2023/07/28 20:24:16;;;;;;;3.90;1.85;;;;;;;;;;5001918;28;20040;-84
2023/07/28 20:26:41;;;;;;;5.32;2.05;;;;;;;;;;4997722;28;20499;-84
2023/07/28 20:29:07;;;;;;;3.47;1.70;;;;;;;;;;5015266;28;20041;-84
2023/07/28 20:31:33;;;;;;;3.53;2.00;;;;;;;;;;5015168;28;20084;-84
2023/07/28 20:33:58;;;;;;;2.63;1.83;;;;;;;;;;5013838;28;20516;-84
2023/07/28 20:36:25;;;;;;;3.88;1.80;;;;;;;;;;4995777;28;20022;-83
2023/07/28 20:38:51;;;;;;;3.80;1.65;;;;;;;;;;5001941;28;20041;-84
2023/07/28 20:41:17;;;;;;;5.20;1.90;;;;;;;;;;4994814;28;20025;-84
2023/07/28 20:43:44;;;;;;;4.55;2.05;;;;;;;;;;5027322;28;20030;-84
2023/07/28 20:46:10;;;;;;;3.25;2.10;;;;;;;;;;5028440;28;20021;-84
2023/07/28 20:48:35;;;;;;;3.88;2.28;;;;;;;;;;5021764;28;20030;-84
2023/07/28 20:51:01;;;;;;;4.10;1.83;;;;;;;;;;5013841;28;20060;-84
2023/07/28 20:53:31;;;;;;;3.63;2.03;;;;;;;;;;5013799;28;20042;-84
2023/07/28 20:55:57;;;;;;;4.65;2.03;;;;;;;;;;5014807;28;20018;-84
2023/07/28 20:58:24;;;;;;;5.50;2.33;;;;;;;;;;5027485;28;20030;-85
2023/07/28 21:00:50;;;;;;;6.18;2.10;;;;;;;;;;5014887;28;20030;-86
2023/07/28 21:03:15;;;;;;;3.90;2.10;;;;;;;;;;5017178;28;20043;-85
2023/07/28 21:05:41;;;;;;;4.15;2.00;;;;;;;;;;5004492;28;20478;-84
2023/07/28 21:08:06;;;;;;;4.88;1.90;;;;;;;;;;5025858;28;20042;-85
2023/07/28 21:10:35;;;;;;;2.83;1.73;;;;;;;;;;4996437;28;20066;-85
2023/07/28 21:13:00;;;;;;;3.17;1.95;;;;;;;;;;5001818;28;20045;-85
2023/07/28 21:15:26;;;;;;;3.95;2.00;;;;;;;;;;5008903;28;20034;-84
2023/07/28 21:17:51;;;;;;;3.65;2.03;;;;;;;;;;5004218;28;20037;-84
2023/07/28 21:20:17;;;;;;;3.47;2.00;;;;;;;;;;5013552;28;21046;-84
2023/07/28 21:22:43;;;;;;;2.75;2.13;;;;;;;;;;5013711;28;20041;-83
2023/07/28 21:25:08;;;;;;;5.45;2.65;;;;;;;;;;5013341;28;20051;-84
2023/07/28 21:27:34;;;;;;;3.85;2.30;;;;;;;;;;5025093;28;20089;-84
2023/07/28 21:29:59;;;;;;;4.65;2.35;;;;;;;;;;5013875;28;20500;-84
2023/07/28 21:32:25;;;;;;;5.40;2.10;;;;;;;;;;5013026;28;20065;-84
2023/07/28 21:34:50;;;;;;;4.85;2.65;;;;;;;;;;4995732;28;20105;-84
2023/07/28 21:37:16;;;;;;;4.38;2.45;;;;;;;;;;5023799;28;20061;-84
2023/07/28 21:39:41;;;;;;;4.13;2.50;;;;;;;;;;5012865;28;20021;-84
2023/07/28 21:42:08;;;;;;;5.13;2.17;;;;;;;;;;5012528;28;20038;-84
2023/07/28 21:44:33;;;;;;;4.25;2.25;;;;;;;;;;5011781;28;20511;-84
2023/07/28 21:46:59;;;;;;;6.85;2.60;;;;;;;;;;5010541;28;20033;-84
2023/07/28 21:49:24;;;;;;;5.35;2.30;;;;;;;;;;5005663;28;20088;-85
2023/07/28 21:51:49;;;;;;;4.53;2.10;;;;;;;;;;5008959;28;20064;-85
2023/07/28 21:54:15;;;;;;;6.03;2.30;;;;;;;;;;5012904;28;20025;-84
2023/07/28 21:56:41;;;;;;;6.38;2.78;;;;;;;;;;5013187;28;20040;-84
2023/07/28 21:59:06;;;;;;;5.50;2.30;;;;;;;;;;5012261;28;20022;-84
2023/07/28 22:01:32;;;;;;;6.05;2.70;;;;;;;;;;5028938;28;20095;-84
2023/07/28 22:03:57;;;;;;;7.97;2.72;;;;;;;;;;4987701;28;20037;-85
2023/07/28 22:06:23;;;;;;;9.30;2.63;;;;;;;;;;5013150;28;20037;-84
2023/07/28 22:08:49;;;;;;;4.95;2.38;;;;;;;;;;5012099;28;20560;-84
2023/07/28 22:11:14;;;;;;;5.80;2.40;;;;;;;;;;5028582;28;20042;-84
2023/07/28 22:13:40;;;;;;;8.90;2.47;;;;;;;;;;5013133;28;20050;-84
2023/07/28 22:16:05;;;;;;;4.38;2.30;;;;;;;;;;5003314;28;20065;-84
2023/07/28 22:18:31;;;;;;;5.25;2.83;;;;;;;;;;5010462;28;20022;-84
2023/07/28 22:20:57;;;;;;;5.75;2.78;;;;;;;;;;5018822;28;20031;-84
2023/07/28 22:23:22;;;;;;;6.68;2.35;;;;;;;;;;5011822;28;20029;-84
2023/07/28 22:25:48;;;;;;;5.50;2.30;;;;;;;;;;5018905;28;20042;-84
2023/07/28 22:28:13;;;;;;;3.80;2.10;;;;;;;;;;5010831;28;20029;-84
2023/07/28 22:30:39;;;;;;;5.30;2.38;;;;;;;;;;5028671;28;20436;-84
2023/07/28 22:33:08;;;;;;;3.92;1.92;;;;;;;;;;5019646;28;20034;-83
2023/07/28 22:35:33;;;;;;;4.35;2.20;;;;;;;;;;5013334;28;20041;-84
2023/07/28 22:37:59;;;;;;;5.85;2.20;;;;;;;;;;5011819;28;20026;-84
2023/07/28 22:40:24;;;;;;;5.30;3.20;;;;;;;;;;5011456;28;20396;-84
2023/07/28 22:42:50;;;;;;;4.03;2.13;;;;;;;;;;5012118;28;20041;-85
2023/07/28 22:45:16;;;;;;;4.55;2.38;;;;;;;;;;5011956;28;20121;-85
2023/07/28 22:47:42;;;;;;;4.97;1.90;;;;;;;;;;5005601;28;20397;-84
2023/07/28 22:50:07;;;;;;;2.45;1.60;;;;;;;;;;5007870;28;20045;-85
2023/07/28 22:52:33;;;;;;;5.88;1.90;;;;;;;;;;5012639;28;20026;-85
2023/07/28 22:54:58;;;;;;;2.70;1.92;;;;;;;;;;5013926;28;20030;-84
2023/07/28 22:57:24;;;;;;;2.65;1.63;;;;;;;;;;5012561;28;20030;-84
2023/07/28 22:59:49;;;;;;;3.88;1.90;;;;;;;;;;5012480;28;20050;-85
2023/07/28 23:02:15;;;;;;;3.42;1.95;;;;;;;;;;4979509;28;20777;-85
2023/07/28 23:04:40;;;;;;;4.20;1.95;;;;;;;;;;5008763;28;20417;-85
2023/07/28 23:07:06;;;;;;;4.72;1.80;;;;;;;;;;5027146;28;20575;-85
2023/07/28 23:09:32;;;;;;;4.25;1.75;;;;;;;;;;4983007;28;20061;-85
2023/07/28 23:11:57;;;;;;;4.97;1.95;;;;;;;;;;5008194;28;20525;-85
2023/07/28 23:14:23;;;;;;;4.57;1.80;;;;;;;;;;4991690;28;20104;-85
2023/07/28 23:16:49;;;;;;;3.28;1.65;;;;;;;;;;5003044;28;20034;-85
2023/07/28 23:19:15;;;;;;;3.90;1.90;;;;;;;;;;5010759;28;20057;-85
2023/07/28 23:21:40;;;;;;;3.88;2.10;;;;;;;;;;5011035;28;20053;-85
2023/07/28 23:24:06;;;;;;;3.75;1.98;;;;;;;;;;5007683;28;20080;-85
2023/07/28 23:26:32;;;;;;;5.22;2.10;;;;;;;;;;5011148;28;20523;-85
2023/07/28 23:28:57;;;;;;;3.85;1.90;;;;;;;;;;5027495;28;20053;-85
2023/07/28 23:31:25;;;;;;;4.50;2.40;;;;;;;;;;5011486;28;20034;-85
2023/07/28 23:33:51;;;;;;;4.22;1.85;;;;;;;;;;5014125;28;20045;-85
2023/07/28 23:36:16;;;;;;;3.83;2.20;;;;;;;;;;5015171;28;20033;-85
2023/07/28 23:38:42;;;;;;;3.72;1.80;;;;;;;;;;5015196;28;20392;-85
2023/07/28 23:41:07;;;;;;;3.05;1.90;;;;;;;;;;4998791;28;20028;-85
2023/07/28 23:43:33;;;;;;;4.07;1.95;;;;;;;;;;5014350;28;20056;-85
2023/07/28 23:45:58;;;;;;;5.85;2.22;;;;;;;;;;5016166;28;20481;-85
2023/07/28 23:48:25;;;;;;;3.10;1.90;;;;;;;;;;4998543;28;20493;-85
2023/07/28 23:50:50;;;;;;;4.13;1.95;;;;;;;;;;5016233;28;20533;-83
2023/07/28 23:53:16;;;;;;;4.28;1.90;;;;;;;;;;5015874;28;20232;-85
2023/07/28 23:55:41;;;;;;;3.72;1.80;;;;;;;;;;4998618;28;20105;-85
2023/07/28 23:58:07;;;;;;;3.60;1.85;;;;;;;;;;5015836;28;20042;-85
